sensor_id;sensor_type;location;lat;lon;timestamp;P1;durP1;ratioP1;P2;durP2;ratioP2
15806;SDS011;8005;51.368;6.140;2022-08-30T00:01:25;4.90;;;2.55;;
15806;SDS011;8005;51.368;6.140;2022-08-30T00:02:59;7.90;;;3.00;;
15806;SDS011;8005;51.368;6.140;2022-08-30T00:04:31;9.25;;;3.20;;
15806;SDS011;8005;51.368;6.140;2022-08-30T00:06:05;5.72;;;2.35;;
15806;SDS011;8005;51.368;6.140;2022-08-30T00:07:38;8.40;;;2.90;;
15806;SDS011;8005;51.368;6.140;2022-08-30T00:09:10;9.02;;;3.17;;
15806;SDS011;8005;51.368;6.140;2022-08-30T00:10:42;9.52;;;4.32;;
15806;SDS011;8005;51.368;6.140;2022-08-30T00:12:14;6.57;;;3.22;;
15806;SDS011;8005;51.368;6.140;2022-08-30T00:13:47;8.43;;;2.70;;
15806;SDS011;8005;51.368;6.140;2022-08-30T00:15:21;9.43;;;3.10;;
15806;SDS011;8005;51.368;6.140;2022-08-30T00:16:53;6.47;;;3.25;;
15806;SDS011;8005;51.368;6.140;2022-08-30T00:18:25;9.32;;;3.00;;
15806;SDS011;8005;51.368;6.140;2022-08-30T00:19:57;6.43;;;3.10;;
15806;SDS011;8005;51.368;6.140;2022-08-30T00:21:29;11.65;;;2.88;;
15806;SDS011;8005;51.368;6.140;2022-08-30T00:23:01;5.17;;;2.30;;
15806;SDS011;8005;51.368;6.140;2022-08-30T00:24:34;9.07;;;3.00;;
15806;SDS011;8005;51.368;6.140;2022-08-30T00:26:06;10.75;;;2.70;;
15806;SDS011;8005;51.368;6.140;2022-08-30T00:27:38;6.10;;;3.55;;
15806;SDS011;8005;51.368;6.140;2022-08-30T00:29:10;6.10;;;2.73;;
15806;SDS011;8005;51.368;6.140;2022-08-30T00:30:42;4.18;;;2.58;;
15806;SDS011;8005;51.368;6.140;2022-08-30T00:32:14;10.50;;;3.00;;
15806;SDS011;8005;51.368;6.140;2022-08-30T00:33:46;6.85;;;3.22;;
15806;SDS011;8005;51.368;6.140;2022-08-30T00:35:18;8.27;;;3.50;;
15806;SDS011;8005;51.368;6.140;2022-08-30T00:36:50;12.15;;;3.25;;
15806;SDS011;8005;51.368;6.140;2022-08-30T00:38:23;7.90;;;3.33;;
15806;SDS011;8005;51.368;6.140;2022-08-30T00:39:55;4.93;;;2.65;;
15806;SDS011;8005;51.368;6.140;2022-08-30T00:41:27;7.15;;;2.83;;
15806;SDS011;8005;51.368;6.140;2022-08-30T00:42:59;7.13;;;2.88;;
15806;SDS011;8005;51.368;6.140;2022-08-30T00:44:36;6.22;;;3.08;;
15806;SDS011;8005;51.368;6.140;2022-08-30T00:46:08;7.63;;;2.90;;
15806;SDS011;8005;51.368;6.140;2022-08-30T00:47:40;8.63;;;2.92;;
15806;SDS011;8005;51.368;6.140;2022-08-30T00:49:12;8.47;;;3.67;;
15806;SDS011;8005;51.368;6.140;2022-08-30T00:50:46;6.32;;;2.45;;
15806;SDS011;8005;51.368;6.140;2022-08-30T00:52:20;6.72;;;3.20;;
15806;SDS011;8005;51.368;6.140;2022-08-30T00:53:53;8.82;;;2.70;;
15806;SDS011;8005;51.368;6.140;2022-08-30T00:55:27;9.43;;;3.17;;
15806;SDS011;8005;51.368;6.140;2022-08-30T00:56:59;8.27;;;3.45;;
15806;SDS011;8005;51.368;6.140;2022-08-30T00:58:33;8.73;;;3.63;;
15806;SDS011;8005;51.368;6.140;2022-08-30T01:00:07;7.07;;;3.30;;
15806;SDS011;8005;51.368;6.140;2022-08-30T01:01:40;6.63;;;3.10;;
15806;SDS011;8005;51.368;6.140;2022-08-30T01:03:13;8.13;;;2.92;;
15806;SDS011;8005;51.368;6.140;2022-08-30T01:04:46;7.53;;;2.88;;
15806;SDS011;8005;51.368;6.140;2022-08-30T01:06:18;6.28;;;2.92;;
15806;SDS011;8005;51.368;6.140;2022-08-30T01:07:51;7.00;;;2.88;;
15806;SDS011;8005;51.368;6.140;2022-08-30T01:09:23;8.23;;;2.77;;
15806;SDS011;8005;51.368;6.140;2022-08-30T01:10:55;9.45;;;3.15;;
15806;SDS011;8005;51.368;6.140;2022-08-30T01:12:27;7.47;;;3.20;;
15806;SDS011;8005;51.368;6.140;2022-08-30T01:15:32;6.20;;;3.05;;
15806;SDS011;8005;51.368;6.140;2022-08-30T01:17:04;8.88;;;3.70;;
15806;SDS011;8005;51.368;6.140;2022-08-30T01:18:36;10.20;;;3.00;;
15806;SDS011;8005;51.368;6.140;2022-08-30T01:20:11;5.70;;;2.58;;
15806;SDS011;8005;51.368;6.140;2022-08-30T01:21:50;6.30;;;2.83;;
15806;SDS011;8005;51.368;6.140;2022-08-30T01:23:25;8.27;;;3.15;;
15806;SDS011;8005;51.368;6.140;2022-08-30T01:24:58;6.20;;;2.70;;
15806;SDS011;8005;51.368;6.140;2022-08-30T01:26:31;9.10;;;3.13;;
15806;SDS011;8005;51.368;6.140;2022-08-30T01:28:04;6.78;;;2.67;;
15806;SDS011;8005;51.368;6.140;2022-08-30T01:29:37;6.95;;;2.65;;
15806;SDS011;8005;51.368;6.140;2022-08-30T01:31:09;6.70;;;2.45;;
15806;SDS011;8005;51.368;6.140;2022-08-30T01:32:42;7.95;;;2.80;;
15806;SDS011;8005;51.368;6.140;2022-08-30T01:34:15;4.57;;;2.63;;
15806;SDS011;8005;51.368;6.140;2022-08-30T01:36:00;10.55;;;3.15;;
15806;SDS011;8005;51.368;6.140;2022-08-30T01:37:34;6.25;;;2.50;;
15806;SDS011;8005;51.368;6.140;2022-08-30T01:39:07;6.57;;;2.80;;
15806;SDS011;8005;51.368;6.140;2022-08-30T01:40:40;5.80;;;2.72;;
15806;SDS011;8005;51.368;6.140;2022-08-30T01:42:13;5.88;;;2.58;;
15806;SDS011;8005;51.368;6.140;2022-08-30T01:43:48;4.95;;;2.95;;
15806;SDS011;8005;51.368;6.140;2022-08-30T01:45:21;9.38;;;3.20;;
15806;SDS011;8005;51.368;6.140;2022-08-30T01:46:53;7.20;;;2.40;;
15806;SDS011;8005;51.368;6.140;2022-08-30T01:48:25;6.40;;;2.50;;
15806;SDS011;8005;51.368;6.140;2022-08-30T01:50:02;5.70;;;2.47;;
15806;SDS011;8005;51.368;6.140;2022-08-30T01:51:37;7.25;;;2.50;;
15806;SDS011;8005;51.368;6.140;2022-08-30T01:53:09;5.20;;;2.28;;
15806;SDS011;8005;51.368;6.140;2022-08-30T01:54:43;5.28;;;2.50;;
15806;SDS011;8005;51.368;6.140;2022-08-30T01:57:48;9.23;;;2.67;;
15806;SDS011;8005;51.368;6.140;2022-08-30T01:59:20;5.90;;;2.47;;
15806;SDS011;8005;51.368;6.140;2022-08-30T02:00:52;5.10;;;2.83;;
15806;SDS011;8005;51.368;6.140;2022-08-30T02:02:24;7.27;;;2.73;;
15806;SDS011;8005;51.368;6.140;2022-08-30T02:03:58;5.88;;;2.45;;
15806;SDS011;8005;51.368;6.140;2022-08-30T02:05:30;5.90;;;2.67;;
15806;SDS011;8005;51.368;6.140;2022-08-30T02:07:02;8.93;;;2.80;;
15806;SDS011;8005;51.368;6.140;2022-08-30T02:10:07;4.75;;;2.08;;
15806;SDS011;8005;51.368;6.140;2022-08-30T02:11:39;6.93;;;2.78;;
15806;SDS011;8005;51.368;6.140;2022-08-30T02:13:11;5.32;;;2.65;;
15806;SDS011;8005;51.368;6.140;2022-08-30T02:14:43;6.18;;;2.58;;
15806;SDS011;8005;51.368;6.140;2022-08-30T02:16:17;3.93;;;2.37;;
15806;SDS011;8005;51.368;6.140;2022-08-30T02:17:55;7.45;;;2.88;;
15806;SDS011;8005;51.368;6.140;2022-08-30T02:19:27;7.25;;;2.78;;
15806;SDS011;8005;51.368;6.140;2022-08-30T02:22:31;5.13;;;3.38;;
15806;SDS011;8005;51.368;6.140;2022-08-30T02:24:03;4.30;;;2.70;;
15806;SDS011;8005;51.368;6.140;2022-08-30T02:25:35;5.97;;;2.70;;
15806;SDS011;8005;51.368;6.140;2022-08-30T02:27:07;5.28;;;2.50;;
15806;SDS011;8005;51.368;6.140;2022-08-30T02:28:39;7.10;;;2.55;;
15806;SDS011;8005;51.368;6.140;2022-08-30T02:30:20;7.07;;;2.50;;
15806;SDS011;8005;51.368;6.140;2022-08-30T02:31:52;5.47;;;2.42;;
15806;SDS011;8005;51.368;6.140;2022-08-30T02:33:24;8.23;;;2.60;;
15806;SDS011;8005;51.368;6.140;2022-08-30T02:34:56;4.32;;;2.55;;
15806;SDS011;8005;51.368;6.140;2022-08-30T02:36:28;6.20;;;2.37;;
15806;SDS011;8005;51.368;6.140;2022-08-30T02:37:59;5.03;;;2.20;;
15806;SDS011;8005;51.368;6.140;2022-08-30T02:39:31;7.33;;;3.37;;
15806;SDS011;8005;51.368;6.140;2022-08-30T02:41:03;6.25;;;2.50;;
15806;SDS011;8005;51.368;6.140;2022-08-30T02:42:35;4.93;;;2.42;;
15806;SDS011;8005;51.368;6.140;2022-08-30T02:44:07;4.72;;;2.53;;
15806;SDS011;8005;51.368;6.140;2022-08-30T02:45:40;6.75;;;2.35;;
15806;SDS011;8005;51.368;6.140;2022-08-30T02:47:12;4.68;;;2.80;;
15806;SDS011;8005;51.368;6.140;2022-08-30T02:48:44;6.47;;;2.60;;
15806;SDS011;8005;51.368;6.140;2022-08-30T02:50:16;7.03;;;2.90;;
15806;SDS011;8005;51.368;6.140;2022-08-30T02:51:48;6.95;;;2.72;;
15806;SDS011;8005;51.368;6.140;2022-08-30T02:53:21;6.22;;;2.90;;
15806;SDS011;8005;51.368;6.140;2022-08-30T02:54:53;6.07;;;2.47;;
15806;SDS011;8005;51.368;6.140;2022-08-30T02:56:25;5.75;;;2.45;;
15806;SDS011;8005;51.368;6.140;2022-08-30T02:57:59;5.10;;;2.85;;
15806;SDS011;8005;51.368;6.140;2022-08-30T02:59:31;6.28;;;2.45;;
15806;SDS011;8005;51.368;6.140;2022-08-30T03:01:03;3.78;;;2.28;;
15806;SDS011;8005;51.368;6.140;2022-08-30T03:02:36;5.30;;;3.00;;
15806;SDS011;8005;51.368;6.140;2022-08-30T03:04:08;6.25;;;2.75;;
15806;SDS011;8005;51.368;6.140;2022-08-30T03:05:40;3.42;;;2.33;;
15806;SDS011;8005;51.368;6.140;2022-08-30T03:07:12;6.10;;;2.38;;
15806;SDS011;8005;51.368;6.140;2022-08-30T03:08:44;5.55;;;3.50;;
15806;SDS011;8005;51.368;6.140;2022-08-30T03:10:16;6.63;;;3.22;;
15806;SDS011;8005;51.368;6.140;2022-08-30T03:11:48;4.53;;;2.92;;
15806;SDS011;8005;51.368;6.140;2022-08-30T03:13:20;3.43;;;2.80;;
15806;SDS011;8005;51.368;6.140;2022-08-30T03:14:52;6.70;;;2.37;;
15806;SDS011;8005;51.368;6.140;2022-08-30T03:16:24;2.88;;;2.35;;
15806;SDS011;8005;51.368;6.140;2022-08-30T03:17:56;6.88;;;2.50;;
15806;SDS011;8005;51.368;6.140;2022-08-30T03:19:28;5.53;;;2.63;;
15806;SDS011;8005;51.368;6.140;2022-08-30T03:21:00;4.00;;;2.53;;
15806;SDS011;8005;51.368;6.140;2022-08-30T03:22:32;5.67;;;3.20;;
15806;SDS011;8005;51.368;6.140;2022-08-30T03:24:04;5.80;;;2.33;;
15806;SDS011;8005;51.368;6.140;2022-08-30T03:25:36;6.45;;;2.45;;
15806;SDS011;8005;51.368;6.140;2022-08-30T03:27:11;4.35;;;2.55;;
15806;SDS011;8005;51.368;6.140;2022-08-30T03:28:47;6.55;;;3.10;;
15806;SDS011;8005;51.368;6.140;2022-08-30T03:30:19;3.77;;;2.57;;
15806;SDS011;8005;51.368;6.140;2022-08-30T03:31:52;4.20;;;2.20;;
15806;SDS011;8005;51.368;6.140;2022-08-30T03:33:24;5.90;;;2.22;;
15806;SDS011;8005;51.368;6.140;2022-08-30T03:34:57;4.60;;;2.35;;
15806;SDS011;8005;51.368;6.140;2022-08-30T03:36:30;7.65;;;2.70;;
15806;SDS011;8005;51.368;6.140;2022-08-30T03:39:34;3.88;;;2.33;;
15806;SDS011;8005;51.368;6.140;2022-08-30T03:41:06;5.93;;;2.83;;
15806;SDS011;8005;51.368;6.140;2022-08-30T03:42:39;5.68;;;2.75;;
15806;SDS011;8005;51.368;6.140;2022-08-30T03:44:13;4.20;;;3.03;;
15806;SDS011;8005;51.368;6.140;2022-08-30T03:45:45;4.30;;;2.50;;
15806;SDS011;8005;51.368;6.140;2022-08-30T03:47:17;5.57;;;2.57;;
15806;SDS011;8005;51.368;6.140;2022-08-30T03:48:49;5.93;;;2.30;;
15806;SDS011;8005;51.368;6.140;2022-08-30T03:50:22;5.25;;;2.50;;
15806;SDS011;8005;51.368;6.140;2022-08-30T03:51:54;3.72;;;2.38;;
15806;SDS011;8005;51.368;6.140;2022-08-30T03:53:26;3.50;;;2.10;;
15806;SDS011;8005;51.368;6.140;2022-08-30T03:54:58;5.97;;;2.40;;
15806;SDS011;8005;51.368;6.140;2022-08-30T03:56:31;5.10;;;2.17;;
15806;SDS011;8005;51.368;6.140;2022-08-30T03:58:03;4.20;;;2.87;;
15806;SDS011;8005;51.368;6.140;2022-08-30T03:59:35;3.97;;;2.33;;
15806;SDS011;8005;51.368;6.140;2022-08-30T04:01:07;2.60;;;2.15;;
15806;SDS011;8005;51.368;6.140;2022-08-30T04:02:39;6.00;;;2.72;;
15806;SDS011;8005;51.368;6.140;2022-08-30T04:04:12;3.53;;;2.40;;
15806;SDS011;8005;51.368;6.140;2022-08-30T04:05:51;3.92;;;2.72;;
15806;SDS011;8005;51.368;6.140;2022-08-30T04:07:24;5.07;;;2.67;;
15806;SDS011;8005;51.368;6.140;2022-08-30T04:08:56;7.18;;;2.85;;
15806;SDS011;8005;51.368;6.140;2022-08-30T04:10:27;4.87;;;2.90;;
15806;SDS011;8005;51.368;6.140;2022-08-30T04:11:59;3.60;;;2.30;;
15806;SDS011;8005;51.368;6.140;2022-08-30T04:13:31;2.92;;;2.10;;
15806;SDS011;8005;51.368;6.140;2022-08-30T04:16:36;5.75;;;2.80;;
15806;SDS011;8005;51.368;6.140;2022-08-30T04:18:08;3.38;;;2.22;;
15806;SDS011;8005;51.368;6.140;2022-08-30T04:19:40;6.28;;;3.22;;
15806;SDS011;8005;51.368;6.140;2022-08-30T04:21:12;5.63;;;2.88;;
15806;SDS011;8005;51.368;6.140;2022-08-30T04:22:44;5.05;;;2.92;;
15806;SDS011;8005;51.368;6.140;2022-08-30T04:24:16;4.57;;;2.40;;
15806;SDS011;8005;51.368;6.140;2022-08-30T04:25:48;4.15;;;2.78;;
15806;SDS011;8005;51.368;6.140;2022-08-30T04:27:20;4.57;;;2.90;;
15806;SDS011;8005;51.368;6.140;2022-08-30T04:28:52;6.88;;;2.55;;
15806;SDS011;8005;51.368;6.140;2022-08-30T04:30:25;4.32;;;2.63;;
15806;SDS011;8005;51.368;6.140;2022-08-30T04:31:57;8.07;;;3.20;;
15806;SDS011;8005;51.368;6.140;2022-08-30T04:33:28;5.00;;;2.63;;
15806;SDS011;8005;51.368;6.140;2022-08-30T04:35:05;5.45;;;2.78;;
15806;SDS011;8005;51.368;6.140;2022-08-30T04:36:37;4.03;;;3.15;;
15806;SDS011;8005;51.368;6.140;2022-08-30T04:38:10;7.88;;;2.85;;
15806;SDS011;8005;51.368;6.140;2022-08-30T04:39:43;5.10;;;2.50;;
15806;SDS011;8005;51.368;6.140;2022-08-30T04:41:17;7.43;;;3.15;;
15806;SDS011;8005;51.368;6.140;2022-08-30T04:42:49;4.38;;;2.80;;
15806;SDS011;8005;51.368;6.140;2022-08-30T04:44:24;14.80;;;3.17;;
15806;SDS011;8005;51.368;6.140;2022-08-30T04:45:57;5.00;;;3.20;;
15806;SDS011;8005;51.368;6.140;2022-08-30T04:47:30;5.03;;;2.97;;
15806;SDS011;8005;51.368;6.140;2022-08-30T04:49:02;7.10;;;3.40;;
15806;SDS011;8005;51.368;6.140;2022-08-30T04:50:36;6.88;;;2.95;;
15806;SDS011;8005;51.368;6.140;2022-08-30T04:52:15;4.10;;;2.65;;
15806;SDS011;8005;51.368;6.140;2022-08-30T04:53:47;6.45;;;3.00;;
15806;SDS011;8005;51.368;6.140;2022-08-30T04:55:19;4.32;;;2.97;;
15806;SDS011;8005;51.368;6.140;2022-08-30T04:56:50;5.20;;;2.95;;
15806;SDS011;8005;51.368;6.140;2022-08-30T04:58:23;5.00;;;3.33;;
15806;SDS011;8005;51.368;6.140;2022-08-30T04:59:55;4.88;;;2.80;;
15806;SDS011;8005;51.368;6.140;2022-08-30T05:01:27;5.77;;;2.93;;
15806;SDS011;8005;51.368;6.140;2022-08-30T05:03:01;5.53;;;3.10;;
15806;SDS011;8005;51.368;6.140;2022-08-30T05:04:32;4.87;;;3.70;;
15806;SDS011;8005;51.368;6.140;2022-08-30T05:06:04;10.70;;;2.93;;
15806;SDS011;8005;51.368;6.140;2022-08-30T05:07:36;7.13;;;3.15;;
15806;SDS011;8005;51.368;6.140;2022-08-30T05:09:08;6.87;;;3.40;;
15806;SDS011;8005;51.368;6.140;2022-08-30T05:10:41;6.07;;;2.93;;
15806;SDS011;8005;51.368;6.140;2022-08-30T05:12:15;6.28;;;3.00;;
15806;SDS011;8005;51.368;6.140;2022-08-30T05:13:47;5.37;;;3.40;;
15806;SDS011;8005;51.368;6.140;2022-08-30T05:15:20;6.00;;;3.08;;
15806;SDS011;8005;51.368;6.140;2022-08-30T05:16:52;5.35;;;3.00;;
15806;SDS011;8005;51.368;6.140;2022-08-30T05:18:24;6.60;;;3.40;;
15806;SDS011;8005;51.368;6.140;2022-08-30T05:19:57;6.70;;;3.10;;
15806;SDS011;8005;51.368;6.140;2022-08-30T05:21:31;5.15;;;3.30;;
15806;SDS011;8005;51.368;6.140;2022-08-30T05:23:04;5.93;;;3.30;;
15806;SDS011;8005;51.368;6.140;2022-08-30T05:26:09;4.82;;;2.92;;
15806;SDS011;8005;51.368;6.140;2022-08-30T05:27:43;5.80;;;3.30;;
15806;SDS011;8005;51.368;6.140;2022-08-30T05:29:15;4.43;;;3.20;;
15806;SDS011;8005;51.368;6.140;2022-08-30T05:30:47;4.73;;;2.93;;
15806;SDS011;8005;51.368;6.140;2022-08-30T05:32:19;5.43;;;3.67;;
15806;SDS011;8005;51.368;6.140;2022-08-30T05:33:51;6.10;;;3.85;;
15806;SDS011;8005;51.368;6.140;2022-08-30T05:35:24;5.15;;;3.50;;
15806;SDS011;8005;51.368;6.140;2022-08-30T05:36:56;7.93;;;4.53;;
15806;SDS011;8005;51.368;6.140;2022-08-30T05:38:28;8.20;;;3.63;;
15806;SDS011;8005;51.368;6.140;2022-08-30T05:40:00;5.95;;;3.55;;
15806;SDS011;8005;51.368;6.140;2022-08-30T05:41:33;7.80;;;3.90;;
15806;SDS011;8005;51.368;6.140;2022-08-30T05:43:07;8.63;;;4.95;;
15806;SDS011;8005;51.368;6.140;2022-08-30T05:44:40;6.13;;;4.13;;
15806;SDS011;8005;51.368;6.140;2022-08-30T05:46:18;5.95;;;3.22;;
15806;SDS011;8005;51.368;6.140;2022-08-30T05:47:52;7.35;;;3.47;;
15806;SDS011;8005;51.368;6.140;2022-08-30T05:49:24;5.43;;;3.83;;
15806;SDS011;8005;51.368;6.140;2022-08-30T05:51:10;6.25;;;3.35;;
15806;SDS011;8005;51.368;6.140;2022-08-30T05:52:42;5.95;;;3.30;;
15806;SDS011;8005;51.368;6.140;2022-08-30T05:54:15;6.40;;;3.45;;
15806;SDS011;8005;51.368;6.140;2022-08-30T05:55:47;7.15;;;3.70;;
15806;SDS011;8005;51.368;6.140;2022-08-30T05:57:19;5.80;;;3.63;;
15806;SDS011;8005;51.368;6.140;2022-08-30T05:58:51;5.43;;;3.65;;
15806;SDS011;8005;51.368;6.140;2022-08-30T06:00:23;5.85;;;3.50;;
15806;SDS011;8005;51.368;6.140;2022-08-30T06:01:56;7.00;;;3.72;;
15806;SDS011;8005;51.368;6.140;2022-08-30T06:03:28;7.30;;;3.72;;
15806;SDS011;8005;51.368;6.140;2022-08-30T06:05:03;5.10;;;3.58;;
15806;SDS011;8005;51.368;6.140;2022-08-30T06:06:36;4.70;;;3.20;;
15806;SDS011;8005;51.368;6.140;2022-08-30T06:08:10;8.20;;;3.97;;
15806;SDS011;8005;51.368;6.140;2022-08-30T06:09:41;4.70;;;3.67;;
15806;SDS011;8005;51.368;6.140;2022-08-30T06:11:15;4.47;;;3.60;;
15806;SDS011;8005;51.368;6.140;2022-08-30T06:12:48;8.27;;;4.05;;
15806;SDS011;8005;51.368;6.140;2022-08-30T06:14:20;4.65;;;3.88;;
15806;SDS011;8005;51.368;6.140;2022-08-30T06:15:51;6.93;;;3.95;;
15806;SDS011;8005;51.368;6.140;2022-08-30T06:17:23;7.07;;;3.80;;
15806;SDS011;8005;51.368;6.140;2022-08-30T06:18:56;6.17;;;4.07;;
15806;SDS011;8005;51.368;6.140;2022-08-30T06:20:28;7.30;;;3.90;;
15806;SDS011;8005;51.368;6.140;2022-08-30T06:22:00;6.70;;;3.53;;
15806;SDS011;8005;51.368;6.140;2022-08-30T06:23:32;5.55;;;3.95;;
15806;SDS011;8005;51.368;6.140;2022-08-30T06:25:05;5.18;;;3.80;;
15806;SDS011;8005;51.368;6.140;2022-08-30T06:26:38;6.05;;;4.45;;
15806;SDS011;8005;51.368;6.140;2022-08-30T06:28:11;8.93;;;4.18;;
15806;SDS011;8005;51.368;6.140;2022-08-30T06:29:43;6.75;;;4.25;;
15806;SDS011;8005;51.368;6.140;2022-08-30T06:31:16;7.85;;;4.05;;
15806;SDS011;8005;51.368;6.140;2022-08-30T06:32:49;6.68;;;3.90;;
15806;SDS011;8005;51.368;6.140;2022-08-30T06:34:21;8.47;;;3.33;;
15806;SDS011;8005;51.368;6.140;2022-08-30T06:35:53;5.87;;;3.60;;
15806;SDS011;8005;51.368;6.140;2022-08-30T06:37:29;7.63;;;4.07;;
15806;SDS011;8005;51.368;6.140;2022-08-30T06:39:03;6.32;;;4.40;;
15806;SDS011;8005;51.368;6.140;2022-08-30T06:40:36;8.02;;;4.28;;
15806;SDS011;8005;51.368;6.140;2022-08-30T06:42:08;8.30;;;4.80;;
15806;SDS011;8005;51.368;6.140;2022-08-30T06:43:40;8.15;;;4.18;;
15806;SDS011;8005;51.368;6.140;2022-08-30T06:45:18;8.13;;;4.60;;
15806;SDS011;8005;51.368;6.140;2022-08-30T06:46:50;7.25;;;4.22;;
15806;SDS011;8005;51.368;6.140;2022-08-30T06:48:22;8.88;;;4.82;;
15806;SDS011;8005;51.368;6.140;2022-08-30T06:49:54;6.35;;;4.38;;
15806;SDS011;8005;51.368;6.140;2022-08-30T06:51:28;8.65;;;4.72;;
15806;SDS011;8005;51.368;6.140;2022-08-30T06:53:04;9.05;;;4.38;;
15806;SDS011;8005;51.368;6.140;2022-08-30T06:54:36;8.43;;;4.60;;
15806;SDS011;8005;51.368;6.140;2022-08-30T06:56:09;8.85;;;4.50;;
15806;SDS011;8005;51.368;6.140;2022-08-30T06:57:47;11.38;;;4.60;;
15806;SDS011;8005;51.368;6.140;2022-08-30T06:59:19;7.73;;;4.33;;
15806;SDS011;8005;51.368;6.140;2022-08-30T07:00:51;9.57;;;4.00;;
15806;SDS011;8005;51.368;6.140;2022-08-30T07:02:23;7.53;;;3.45;;
15806;SDS011;8005;51.368;6.140;2022-08-30T07:03:56;6.75;;;4.35;;
15806;SDS011;8005;51.368;6.140;2022-08-30T07:05:29;7.15;;;4.45;;
15806;SDS011;8005;51.368;6.140;2022-08-30T07:07:01;7.75;;;4.18;;
15806;SDS011;8005;51.368;6.140;2022-08-30T07:08:32;9.15;;;4.70;;
15806;SDS011;8005;51.368;6.140;2022-08-30T07:10:04;8.60;;;4.10;;
15806;SDS011;8005;51.368;6.140;2022-08-30T07:11:38;8.43;;;4.50;;
15806;SDS011;8005;51.368;6.140;2022-08-30T07:13:11;8.93;;;5.47;;
15806;SDS011;8005;51.368;6.140;2022-08-30T07:14:43;6.38;;;4.22;;
15806;SDS011;8005;51.368;6.140;2022-08-30T07:16:14;6.97;;;4.20;;
15806;SDS011;8005;51.368;6.140;2022-08-30T07:17:46;7.25;;;4.40;;
15806;SDS011;8005;51.368;6.140;2022-08-30T07:19:37;6.65;;;4.28;;
15806;SDS011;8005;51.368;6.140;2022-08-30T07:21:10;9.07;;;4.03;;
15806;SDS011;8005;51.368;6.140;2022-08-30T07:22:44;10.27;;;4.50;;
15806;SDS011;8005;51.368;6.140;2022-08-30T07:24:17;9.27;;;4.50;;
15806;SDS011;8005;51.368;6.140;2022-08-30T07:25:49;6.55;;;3.60;;
15806;SDS011;8005;51.368;6.140;2022-08-30T07:27:21;6.57;;;4.43;;
15806;SDS011;8005;51.368;6.140;2022-08-30T07:28:53;9.52;;;4.30;;
15806;SDS011;8005;51.368;6.140;2022-08-30T07:30:26;6.78;;;4.45;;
15806;SDS011;8005;51.368;6.140;2022-08-30T07:31:58;5.57;;;4.10;;
15806;SDS011;8005;51.368;6.140;2022-08-30T07:33:30;10.43;;;4.65;;
15806;SDS011;8005;51.368;6.140;2022-08-30T07:35:03;6.45;;;4.05;;
15806;SDS011;8005;51.368;6.140;2022-08-30T07:38:11;6.83;;;4.07;;
15806;SDS011;8005;51.368;6.140;2022-08-30T07:39:44;7.82;;;4.18;;
15806;SDS011;8005;51.368;6.140;2022-08-30T07:41:20;10.57;;;4.13;;
15806;SDS011;8005;51.368;6.140;2022-08-30T07:42:56;13.13;;;4.07;;
15806;SDS011;8005;51.368;6.140;2022-08-30T07:44:32;13.98;;;6.03;;
15806;SDS011;8005;51.368;6.140;2022-08-30T07:46:05;6.97;;;4.53;;
15806;SDS011;8005;51.368;6.140;2022-08-30T07:47:38;7.25;;;3.63;;
15806;SDS011;8005;51.368;6.140;2022-08-30T07:49:11;5.30;;;3.75;;
15806;SDS011;8005;51.368;6.140;2022-08-30T07:50:43;29.90;;;7.80;;
15806;SDS011;8005;51.368;6.140;2022-08-30T07:52:16;9.98;;;4.60;;
15806;SDS011;8005;51.368;6.140;2022-08-30T07:53:48;6.20;;;4.30;;
15806;SDS011;8005;51.368;6.140;2022-08-30T07:55:20;7.73;;;4.17;;
15806;SDS011;8005;51.368;6.140;2022-08-30T07:56:52;6.95;;;3.72;;
15806;SDS011;8005;51.368;6.140;2022-08-30T07:58:26;10.45;;;4.30;;
15806;SDS011;8005;51.368;6.140;2022-08-30T07:59:58;11.05;;;4.10;;
15806;SDS011;8005;51.368;6.140;2022-08-30T08:01:30;6.05;;;3.53;;
15806;SDS011;8005;51.368;6.140;2022-08-30T08:03:06;6.32;;;3.53;;
15806;SDS011;8005;51.368;6.140;2022-08-30T08:04:38;7.70;;;3.85;;
15806;SDS011;8005;51.368;6.140;2022-08-30T08:06:11;6.53;;;3.63;;
15806;SDS011;8005;51.368;6.140;2022-08-30T08:07:45;8.05;;;4.05;;
15806;SDS011;8005;51.368;6.140;2022-08-30T08:09:17;7.18;;;4.07;;
15806;SDS011;8005;51.368;6.140;2022-08-30T08:10:50;9.95;;;4.05;;
15806;SDS011;8005;51.368;6.140;2022-08-30T08:12:22;11.02;;;3.28;;
15806;SDS011;8005;51.368;6.140;2022-08-30T08:13:54;8.88;;;3.83;;
15806;SDS011;8005;51.368;6.140;2022-08-30T08:15:26;9.70;;;4.22;;
15806;SDS011;8005;51.368;6.140;2022-08-30T08:16:59;10.80;;;3.95;;
15806;SDS011;8005;51.368;6.140;2022-08-30T08:18:31;6.95;;;3.13;;
15806;SDS011;8005;51.368;6.140;2022-08-30T08:20:03;7.40;;;3.63;;
15806;SDS011;8005;51.368;6.140;2022-08-30T08:21:38;7.90;;;3.85;;
15806;SDS011;8005;51.368;6.140;2022-08-30T08:23:11;9.07;;;2.97;;
15806;SDS011;8005;51.368;6.140;2022-08-30T08:24:43;8.45;;;3.28;;
15806;SDS011;8005;51.368;6.140;2022-08-30T08:26:14;6.43;;;2.92;;
15806;SDS011;8005;51.368;6.140;2022-08-30T08:27:46;5.78;;;3.22;;
15806;SDS011;8005;51.368;6.140;2022-08-30T08:29:21;7.53;;;2.88;;
15806;SDS011;8005;51.368;6.140;2022-08-30T08:30:53;4.57;;;2.80;;
15806;SDS011;8005;51.368;6.140;2022-08-30T08:32:26;7.20;;;3.03;;
15806;SDS011;8005;51.368;6.140;2022-08-30T08:33:58;10.15;;;3.10;;
15806;SDS011;8005;51.368;6.140;2022-08-30T08:35:31;5.13;;;3.08;;
15806;SDS011;8005;51.368;6.140;2022-08-30T08:37:04;6.18;;;2.50;;
15806;SDS011;8005;51.368;6.140;2022-08-30T08:38:36;5.05;;;2.50;;
15806;SDS011;8005;51.368;6.140;2022-08-30T08:40:08;7.50;;;2.80;;
15806;SDS011;8005;51.368;6.140;2022-08-30T08:41:58;5.25;;;2.72;;
15806;SDS011;8005;51.368;6.140;2022-08-30T08:43:48;7.70;;;3.78;;
15806;SDS011;8005;51.368;6.140;2022-08-30T08:45:23;6.43;;;2.70;;
15806;SDS011;8005;51.368;6.140;2022-08-30T08:47:00;5.63;;;2.67;;
15806;SDS011;8005;51.368;6.140;2022-08-30T08:50:30;5.15;;;2.28;;
15806;SDS011;8005;51.368;6.140;2022-08-30T08:52:04;5.32;;;2.40;;
15806;SDS011;8005;51.368;6.140;2022-08-30T08:54:03;5.70;;;2.50;;
15806;SDS011;8005;51.368;6.140;2022-08-30T08:55:39;9.87;;;2.70;;
15806;SDS011;8005;51.368;6.140;2022-08-30T08:57:19;5.05;;;2.42;;
15806;SDS011;8005;51.368;6.140;2022-08-30T08:58:55;7.45;;;2.42;;
15806;SDS011;8005;51.368;6.140;2022-08-30T09:00:28;6.60;;;2.67;;
15806;SDS011;8005;51.368;6.140;2022-08-30T09:02:07;4.60;;;2.40;;
15806;SDS011;8005;51.368;6.140;2022-08-30T09:04:00;11.68;;;2.30;;
15806;SDS011;8005;51.368;6.140;2022-08-30T09:05:38;3.15;;;2.10;;
15806;SDS011;8005;51.368;6.140;2022-08-30T09:07:16;6.97;;;2.30;;
15806;SDS011;8005;51.368;6.140;2022-08-30T09:08:51;6.82;;;2.38;;
15806;SDS011;8005;51.368;6.140;2022-08-30T09:10:23;4.20;;;2.22;;
15806;SDS011;8005;51.368;6.140;2022-08-30T09:12:16;5.90;;;2.05;;
15806;SDS011;8005;51.368;6.140;2022-08-30T09:13:48;7.75;;;2.85;;
15806;SDS011;8005;51.368;6.140;2022-08-30T09:15:26;4.05;;;2.05;;
15806;SDS011;8005;51.368;6.140;2022-08-30T09:17:08;6.18;;;2.22;;
15806;SDS011;8005;51.368;6.140;2022-08-30T09:18:42;6.70;;;2.30;;
15806;SDS011;8005;51.368;6.140;2022-08-30T09:21:57;6.95;;;2.03;;
15806;SDS011;8005;51.368;6.140;2022-08-30T09:23:30;9.10;;;1.88;;
15806;SDS011;8005;51.368;6.140;2022-08-30T09:26:49;5.57;;;1.95;;
15806;SDS011;8005;51.368;6.140;2022-08-30T09:28:29;6.75;;;2.28;;
15806;SDS011;8005;51.368;6.140;2022-08-30T09:30:12;7.38;;;1.90;;
15806;SDS011;8005;51.368;6.140;2022-08-30T09:31:47;4.65;;;2.00;;
15806;SDS011;8005;51.368;6.140;2022-08-30T09:33:53;7.00;;;2.40;;
15806;SDS011;8005;51.368;6.140;2022-08-30T09:35:43;4.43;;;1.60;;
15806;SDS011;8005;51.368;6.140;2022-08-30T09:37:32;4.63;;;1.60;;
15806;SDS011;8005;51.368;6.140;2022-08-30T09:44:48;5.60;;;1.83;;
15806;SDS011;8005;51.368;6.140;2022-08-30T09:46:22;4.22;;;1.13;;
15806;SDS011;8005;51.368;6.140;2022-08-30T09:47:55;4.38;;;1.55;;
15806;SDS011;8005;51.368;6.140;2022-08-30T09:49:34;4.18;;;1.63;;
15806;SDS011;8005;51.368;6.140;2022-08-30T09:55:08;3.63;;;1.67;;
15806;SDS011;8005;51.368;6.140;2022-08-30T09:58:39;4.50;;;1.40;;
15806;SDS011;8005;51.368;6.140;2022-08-30T10:00:47;5.40;;;1.60;;
15806;SDS011;8005;51.368;6.140;2022-08-30T10:04:18;3.97;;;1.27;;